createdAt,value
2022-10-03T00:02:53.800Z,6.95
2022-10-03T00:05:42.271Z,8.05
2022-10-03T00:08:25.050Z,8.18
2022-10-03T00:11:17.248Z,7.30
2022-10-03T00:14:14.360Z,8.65
2022-10-03T00:17:01.340Z,8.55
2022-10-03T00:19:46.855Z,8.05
2022-10-03T00:22:32.280Z,7.35
2022-10-03T00:25:30.137Z,7.32
2022-10-03T00:28:19.312Z,8.13
2022-10-03T00:31:09.330Z,6.10
2022-10-03T00:34:09.870Z,7.50
2022-10-03T00:36:43.601Z,7.43
2022-10-03T00:39:38.158Z,7.38
2022-10-03T00:42:36.489Z,8.02
2022-10-03T00:45:40.624Z,7.88
2022-10-03T00:48:41.481Z,7.43
2022-10-03T00:51:11.030Z,8.25
2022-10-03T00:53:53.664Z,9.02
2022-10-03T00:56:36.396Z,7.72
2022-10-03T00:59:48.311Z,8.48
2022-10-03T01:02:27.149Z,7.18
2022-10-03T01:04:59.390Z,7.38
2022-10-03T01:07:44.001Z,7.37
2022-10-03T01:10:36.268Z,7.65
2022-10-03T01:13:27.971Z,6.93
2022-10-03T01:16:03.538Z,7.15
2022-10-03T01:18:45.197Z,9.02
2022-10-03T01:21:57.993Z,7.63
2022-10-03T01:24:29.504Z,6.28
2022-10-03T01:27:06.692Z,7.32
2022-10-03T01:30:04.276Z,6.53
2022-10-03T01:32:38.065Z,6.38
2022-10-03T01:35:29.571Z,5.68
2022-10-03T01:38:17.207Z,6.68
2022-10-03T01:41:11.117Z,6.25
2022-10-03T01:44:00.692Z,6.63
2022-10-03T01:46:55.008Z,6.53
2022-10-03T01:49:25.887Z,5.80
2022-10-03T01:52:16.828Z,6.15
2022-10-03T01:54:58.954Z,5.47
2022-10-03T01:57:29.392Z,5.80
2022-10-03T02:00:00.268Z,5.75
2022-10-03T02:02:42.370Z,5.90
2022-10-03T02:05:17.188Z,5.65
2022-10-03T02:08:10.177Z,5.72
2022-10-03T02:10:40.164Z,5.68
2022-10-03T02:13:15.045Z,5.75
2022-10-03T02:15:48.638Z,4.28
2022-10-03T02:18:29.487Z,5.10
2022-10-03T02:21:17.560Z,5.25
2022-10-03T02:23:46.458Z,5.18
2022-10-03T02:27:04.589Z,4.07
2022-10-03T02:30:10.390Z,4.82
2022-10-03T02:32:43.304Z,4.88
2022-10-03T02:35:28.229Z,5.05
2022-10-03T02:38:09.094Z,5.57
2022-10-03T02:40:55.788Z,5.43
2022-10-03T02:43:58.764Z,5.45
2022-10-03T02:46:59.560Z,5.07
2022-10-03T02:49:44.837Z,5.22
2022-10-03T02:53:08.971Z,5.60
2022-10-03T02:58:33.427Z,4.70
2022-10-03T03:01:31.098Z,4.35
2022-10-03T03:04:37.407Z,5.30
2022-10-03T03:07:23.006Z,6.18
2022-10-03T03:10:17.968Z,4.68
2022-10-03T03:13:30.007Z,4.78
2022-10-03T03:16:11.638Z,5.05
2022-10-03T03:19:02.421Z,5.00
2022-10-03T03:22:04.411Z,5.40
2022-10-03T03:25:12.491Z,4.68
2022-10-03T03:27:53.172Z,5.28
2022-10-03T03:30:27.958Z,4.63
2022-10-03T03:33:07.182Z,6.13
2022-10-03T03:35:46.437Z,5.88
2022-10-03T03:38:48.164Z,4.93
2022-10-03T03:41:23.675Z,4.90
2022-10-03T03:44:00.146Z,4.63
2022-10-03T03:46:57.184Z,4.80
2022-10-03T03:49:37.877Z,5.60
2022-10-03T03:52:41.239Z,4.63
2022-10-03T03:55:26.387Z,4.57
2022-10-03T03:58:17.366Z,4.50
2022-10-03T04:00:53.327Z,4.72
2022-10-03T04:03:39.275Z,4.50
2022-10-03T04:06:22.749Z,4.35
2022-10-03T04:09:08.012Z,4.65
2022-10-03T04:12:05.561Z,4.68
2022-10-03T04:14:41.102Z,4.45
2022-10-03T04:17:53.777Z,4.32
2022-10-03T04:20:35.508Z,4.57
2022-10-03T04:23:14.439Z,5.93
2022-10-03T04:26:24.058Z,4.88
2022-10-03T04:29:19.850Z,4.88
2022-10-03T04:31:46.895Z,4.65
2022-10-03T04:34:28.300Z,5.10
2022-10-03T04:39:47.067Z,4.50
2022-10-03T04:42:21.199Z,4.57
2022-10-03T04:45:09.515Z,4.35
2022-10-03T04:48:02.362Z,4.85
2022-10-03T04:50:41.002Z,4.30
2022-10-03T04:53:24.246Z,4.38
2022-10-03T04:58:40.645Z,4.60
2022-10-03T05:01:32.449Z,5.22
2022-10-03T05:04:26.621Z,5.40
2022-10-03T05:07:29.091Z,4.35
2022-10-03T05:10:26.651Z,5.22
2022-10-03T05:13:12.879Z,5.05
2022-10-03T05:16:01.605Z,4.90
2022-10-03T05:18:41.753Z,4.10
2022-10-03T05:21:39.733Z,4.30
2022-10-03T05:24:22.085Z,5.05
2022-10-03T05:27:07.115Z,4.95
2022-10-03T05:29:52.653Z,5.20
2022-10-03T05:32:42.901Z,4.53
2022-10-03T05:35:19.107Z,4.10
2022-10-03T05:38:24.735Z,4.28
2022-10-03T05:41:30.430Z,4.63
2022-10-03T05:44:03.249Z,5.80
2022-10-03T05:46:54.104Z,5.65
2022-10-03T05:49:40.452Z,4.70
2022-10-03T05:52:25.112Z,4.40
2022-10-03T05:55:20.906Z,4.13
2022-10-03T05:57:50.376Z,3.95
2022-10-03T06:00:40.201Z,4.53
2022-10-03T06:03:35.559Z,4.00
2022-10-03T06:06:47.180Z,4.88
2022-10-03T06:09:47.974Z,4.80
2022-10-03T06:12:33.140Z,4.90
2022-10-03T06:15:42.979Z,4.75
2022-10-03T06:18:50.758Z,4.55
2022-10-03T06:22:16.966Z,4.80
2022-10-03T06:25:02.328Z,5.13
2022-10-03T06:27:54.059Z,4.40
2022-10-03T06:30:38.871Z,4.47
2022-10-03T06:33:15.586Z,5.30
2022-10-03T06:36:19.736Z,5.50
2022-10-03T06:39:07.745Z,4.40
2022-10-03T06:42:07.138Z,5.53
2022-10-03T06:44:55.158Z,5.13
2022-10-03T06:47:42.665Z,4.60
2022-10-03T06:50:38.836Z,5.25
2022-10-03T06:53:29.691Z,4.75
2022-10-03T06:56:19.849Z,4.15
2022-10-03T06:59:30.786Z,3.88
2022-10-03T07:02:18.837Z,4.70
2022-10-03T07:05:00.624Z,4.82
2022-10-03T07:07:33.309Z,4.05
2022-10-03T07:10:19.725Z,4.20
2022-10-03T07:13:01.959Z,6.20
2022-10-03T07:16:25.938Z,5.38
2022-10-03T07:19:50.896Z,5.88
2022-10-03T07:22:27.928Z,5.00
2022-10-03T07:25:22.159Z,3.85
2022-10-03T07:28:22.407Z,4.85
2022-10-03T07:30:57.640Z,4.70
2022-10-03T07:33:57.649Z,4.43
2022-10-03T07:37:08.083Z,3.80
2022-10-03T07:40:01.400Z,4.55
2022-10-03T07:42:46.708Z,4.80
2022-10-03T07:45:35.510Z,4.20
2022-10-03T07:48:36.165Z,4.95
2022-10-03T07:51:05.670Z,4.82
2022-10-03T07:53:35.470Z,4.97
2022-10-03T07:56:43.195Z,3.97
2022-10-03T07:59:42.804Z,4.20
2022-10-03T08:02:32.870Z,5.45
2022-10-03T08:05:56.661Z,4.55
2022-10-03T08:08:44.697Z,4.53
2022-10-03T08:11:22.851Z,5.05
2022-10-03T08:14:19.139Z,4.28
2022-10-03T08:17:13.737Z,4.75
2022-10-03T08:20:06.773Z,4.93
2022-10-03T08:22:58.467Z,4.28
2022-10-03T08:25:48.625Z,4.38
2022-10-03T08:28:33.315Z,3.83
2022-10-03T08:31:18.697Z,4.65
2022-10-03T08:33:54.252Z,4.38
2022-10-03T08:36:42.670Z,4.35
2022-10-03T08:39:33.628Z,4.97
2022-10-03T08:42:34.142Z,4.43
2022-10-03T08:45:23.588Z,5.30
2022-10-03T08:48:27.939Z,4.35
2022-10-03T08:51:04.907Z,4.47
2022-10-03T08:53:54.042Z,4.72
2022-10-03T08:57:08.467Z,5.10
2022-10-03T08:59:59.975Z,4.32
2022-10-03T09:03:31.827Z,5.00
2022-10-03T09:06:10.914Z,5.47
2022-10-03T09:08:40.379Z,4.80
2022-10-03T09:11:32.080Z,3.95
2022-10-03T09:14:32.282Z,3.92
2022-10-03T09:17:26.049Z,4.38
2022-10-03T09:20:16.227Z,4.00
2022-10-03T09:23:04.190Z,4.13
2022-10-03T09:25:40.495Z,5.35
2022-10-03T09:28:25.960Z,4.47
2022-10-03T09:31:03.904Z,7.90
2022-10-03T09:34:00.155Z,5.85
2022-10-03T09:36:47.773Z,4.95
2022-10-03T09:39:42.633Z,4.47
2022-10-03T09:42:46.910Z,3.53
2022-10-03T09:45:43.306Z,4.65
2022-10-03T09:48:44.986Z,3.83
2022-10-03T09:51:24.774Z,4.53
2022-10-03T09:54:29.042Z,4.10
2022-10-03T09:57:25.081Z,4.20
2022-10-03T10:00:22.433Z,3.08
2022-10-03T10:03:20.530Z,2.65
2022-10-03T10:06:24.956Z,2.63
2022-10-03T10:09:33.449Z,2.85
2022-10-03T10:12:31.307Z,3.63
2022-10-03T10:15:19.694Z,3.65
2022-10-03T10:18:24.210Z,2.75
2022-10-03T10:21:27.902Z,2.50
2022-10-03T10:27:05.588Z,3.28
2022-10-03T10:29:58.189Z,3.67
2022-10-03T10:32:30.802Z,3.17
2022-10-03T10:35:28.874Z,3.45
2022-10-03T10:38:15.332Z,3.47
2022-10-03T10:41:06.872Z,2.55
2022-10-03T10:44:11.361Z,2.90
2022-10-03T10:47:06.319Z,2.08
2022-10-03T10:50:26.553Z,1.73
2022-10-03T10:53:30.680Z,3.80
2022-10-03T10:56:34.474Z,2.35
2022-10-03T10:59:38.567Z,1.90
2022-10-03T11:02:33.464Z,2.83
2022-10-03T11:05:51.515Z,1.70
2022-10-03T11:08:30.101Z,2.28
2022-10-03T11:11:16.682Z,1.83
2022-10-03T11:14:05.391Z,2.13
2022-10-03T11:17:14.221Z,1.90
2022-10-03T11:20:19.117Z,1.90
2022-10-03T11:23:13.654Z,2.08
2022-10-03T11:26:11.653Z,1.88
2022-10-03T11:29:25.552Z,2.40
2022-10-03T11:34:50.778Z,1.65
2022-10-03T11:37:27.853Z,1.48
2022-10-03T11:40:25.010Z,1.50
2022-10-03T11:43:17.969Z,2.05
2022-10-03T11:46:13.735Z,2.42
2022-10-03T11:49:01.633Z,1.77
2022-10-03T11:51:43.109Z,2.22
2022-10-03T11:54:32.143Z,1.65
2022-10-03T11:57:09.390Z,2.00
2022-10-03T11:59:46.353Z,1.63
2022-10-03T12:02:44.455Z,2.17
2022-10-03T12:05:28.825Z,1.83
2022-10-03T12:08:29.345Z,1.85
2022-10-03T12:11:11.439Z,2.25
2022-10-03T12:14:10.722Z,4.47
2022-10-03T12:17:00.088Z,3.22
2022-10-03T12:20:05.489Z,2.17
2022-10-03T12:22:52.847Z,1.88
2022-10-03T12:25:30.336Z,2.08
2022-10-03T12:28:21.429Z,1.98
2022-10-03T12:31:00.834Z,1.85
2022-10-03T12:34:24.229Z,1.77
2022-10-03T12:37:21.810Z,2.08
2022-10-03T12:39:56.007Z,2.30
2022-10-03T12:42:32.447Z,2.35
2022-10-03T12:45:08.728Z,1.58
2022-10-03T12:47:58.415Z,1.60
2022-10-03T12:50:33.963Z,1.88
2022-10-03T12:53:25.227Z,1.52
2022-10-03T12:56:32.582Z,1.48
2022-10-03T12:59:14.748Z,2.03
2022-10-03T13:02:08.468Z,1.85
2022-10-03T13:04:54.759Z,1.80
2022-10-03T13:07:42.572Z,1.38
2022-10-03T13:10:34.002Z,1.60
2022-10-03T13:13:23.406Z,1.73
2022-10-03T13:16:21.747Z,1.80
2022-10-03T13:19:14.566Z,2.28
2022-10-03T13:22:03.718Z,3.78
2022-10-03T13:24:49.693Z,1.70
2022-10-03T13:27:32.314Z,1.42
2022-10-03T13:30:20.515Z,1.92
2022-10-03T13:32:50.768Z,1.77
2022-10-03T13:35:54.042Z,1.60
2022-10-03T13:38:42.562Z,1.50
2022-10-03T13:41:15.159Z,2.22
2022-10-03T13:43:50.235Z,1.70
2022-10-03T13:46:30.273Z,1.85
2022-10-03T13:49:10.950Z,2.00
2022-10-03T13:52:02.259Z,2.03
2022-10-03T13:55:01.292Z,2.25
2022-10-03T13:58:01.139Z,1.90
2022-10-03T14:00:43.176Z,1.23
2022-10-03T14:03:45.964Z,1.90
2022-10-03T14:06:37.733Z,1.90
2022-10-03T14:09:07.471Z,1.38
2022-10-03T14:11:53.848Z,1.50
2022-10-03T14:15:07.386Z,1.83
2022-10-03T14:17:49.220Z,1.60
2022-10-03T14:20:37.006Z,1.45
2022-10-03T14:23:10.796Z,2.42
2022-10-03T14:25:56.252Z,1.75
2022-10-03T14:28:43.228Z,2.00
2022-10-03T14:31:24.197Z,1.80
2022-10-03T14:34:07.851Z,1.90
2022-10-03T14:36:55.319Z,1.60
2022-10-03T14:39:58.464Z,2.00
2022-10-03T14:42:25.446Z,2.10
2022-10-03T14:44:59.633Z,1.70
2022-10-03T14:47:32.724Z,2.20
2022-10-03T14:50:00.549Z,1.92
2022-10-03T14:53:11.513Z,1.60
2022-10-03T14:56:07.756Z,1.92
2022-10-03T14:58:51.444Z,1.60
2022-10-03T15:01:28.521Z,1.63
2022-10-03T15:04:16.559Z,1.95
2022-10-03T15:06:53.617Z,1.60
2022-10-03T15:09:34.731Z,1.70
2022-10-03T15:12:15.312Z,2.03
2022-10-03T15:14:56.569Z,1.63
2022-10-03T15:17:34.466Z,1.50
2022-10-03T15:20:03.004Z,1.73
2022-10-03T15:22:29.711Z,1.55
2022-10-03T15:25:02.514Z,1.80
2022-10-03T15:27:30.236Z,1.80
2022-10-03T15:30:01.850Z,1.67
2022-10-03T15:32:43.510Z,1.75
2022-10-03T15:35:19.928Z,1.80
2022-10-03T15:37:48.642Z,2.00
2022-10-03T15:40:32.936Z,1.85
2022-10-03T15:43:19.308Z,2.17
2022-10-03T15:45:46.618Z,2.35
2022-10-03T15:48:19.577Z,1.80
2022-10-03T15:53:37.252Z,1.40
2022-10-03T15:56:18.967Z,1.60
2022-10-03T15:58:50.546Z,1.13
2022-10-03T16:01:25.857Z,2.00
2022-10-03T16:04:11.475Z,2.25
2022-10-03T16:06:59.583Z,1.90
2022-10-03T16:09:31.326Z,2.20
2022-10-03T16:12:10.149Z,1.90
2022-10-03T16:14:41.549Z,1.63
2022-10-03T16:17:20.522Z,1.83
2022-10-03T16:19:58.411Z,2.25
2022-10-03T16:22:49.959Z,1.90
2022-10-03T16:25:26.921Z,2.08
2022-10-03T16:28:02.238Z,1.95
2022-10-03T16:30:37.631Z,1.73
2022-10-03T16:33:16.875Z,1.70
2022-10-03T16:35:50.575Z,2.28
2022-10-03T16:38:26.492Z,1.65
2022-10-03T16:41:24.500Z,2.85
2022-10-03T16:44:17.864Z,2.05
2022-10-03T16:49:42.679Z,2.70
2022-10-03T16:52:13.665Z,1.95
2022-10-03T16:54:44.093Z,2.10
2022-10-03T16:57:27.989Z,2.22
2022-10-03T16:59:56.121Z,2.78
2022-10-03T17:02:28.070Z,2.33
2022-10-03T17:05:09.869Z,2.50
2022-10-03T17:08:23.522Z,2.90
2022-10-03T17:10:58.872Z,3.10
2022-10-03T17:13:43.454Z,2.88
2022-10-03T17:16:23.450Z,2.85
2022-10-03T17:19:10.518Z,2.65
2022-10-03T17:21:42.180Z,2.97
2022-10-03T17:24:16.613Z,2.75
2022-10-03T17:26:46.568Z,2.95
2022-10-03T17:29:17.806Z,2.90
2022-10-03T17:32:09.381Z,2.80
2022-10-03T17:34:47.926Z,3.20
2022-10-03T17:37:35.264Z,2.88
2022-10-03T17:40:37.316Z,2.90
2022-10-03T17:43:30.036Z,3.60
2022-10-03T17:46:12.711Z,3.60
2022-10-03T17:48:41.385Z,3.13
2022-10-03T17:51:30.212Z,3.72
2022-10-03T17:53:59.054Z,3.30
2022-10-03T17:56:30.714Z,2.80
2022-10-03T17:59:19.603Z,3.58
2022-10-03T18:01:52.766Z,6.95
2022-10-03T18:04:28.228Z,4.47
2022-10-03T18:06:59.430Z,6.68
2022-10-03T18:09:41.575Z,6.10
2022-10-03T18:12:42.126Z,5.35
2022-10-03T18:15:40.885Z,5.13
2022-10-03T18:18:20.151Z,16.75
2022-10-03T18:21:18.716Z,5.30
2022-10-03T18:23:55.645Z,6.30
2022-10-03T18:26:38.212Z,6.47
2022-10-03T18:29:27.626Z,6.15
2022-10-03T18:32:06.239Z,6.55
2022-10-03T18:34:48.912Z,6.25
2022-10-03T18:37:24.290Z,6.35
2022-10-03T18:39:54.724Z,6.53
2022-10-03T18:42:28.350Z,7.10
2022-10-03T18:44:57.829Z,6.53
2022-10-03T18:47:34.343Z,6.82
2022-10-03T18:50:29.352Z,6.20
2022-10-03T18:53:35.415Z,6.40
2022-10-03T18:56:11.133Z,6.57
2022-10-03T18:58:43.789Z,7.20
2022-10-03T19:01:34.079Z,7.05
2022-10-03T19:04:30.226Z,8.80
2022-10-03T19:06:58.855Z,7.00
2022-10-03T19:09:41.270Z,8.60
2022-10-03T19:12:21.373Z,7.90
2022-10-03T19:15:13.168Z,7.18
2022-10-03T19:18:07.652Z,6.82
2022-10-03T19:20:41.105Z,8.07
2022-10-03T19:23:22.933Z,6.30
2022-10-03T19:26:02.614Z,6.28
2022-10-03T19:28:44.849Z,7.55
2022-10-03T19:31:11.813Z,5.82
2022-10-03T19:33:44.862Z,12.93
2022-10-03T19:38:46.871Z,16.85
2022-10-03T19:41:36.000Z,10.13
2022-10-03T19:44:08.201Z,10.30
2022-10-03T19:46:43.917Z,7.93
2022-10-03T19:49:20.210Z,7.72
2022-10-03T19:51:49.064Z,7.18
2022-10-03T19:54:43.121Z,7.53
2022-10-03T19:57:18.638Z,9.27
2022-10-03T19:59:50.475Z,9.55
2022-10-03T20:02:24.840Z,9.05
2022-10-03T20:04:55.236Z,8.38
2022-10-03T20:07:52.405Z,7.40
2022-10-03T20:10:50.600Z,8.48
2022-10-03T20:13:17.562Z,9.40
2022-10-03T20:15:47.680Z,9.93
2022-10-03T20:18:26.465Z,8.38
2022-10-03T20:20:58.297Z,9.30
2022-10-03T20:23:29.080Z,8.68
2022-10-03T20:26:41.793Z,7.93
2022-10-03T20:29:23.028Z,7.38
2022-10-03T20:31:51.200Z,8.05
2022-10-03T20:34:24.060Z,7.68
2022-10-03T20:37:02.056Z,9.30
2022-10-03T20:39:34.190Z,7.47
2022-10-03T20:42:10.078Z,7.93
2022-10-03T20:45:02.589Z,7.47
2022-10-03T20:47:50.652Z,7.88
2022-10-03T20:50:23.395Z,7.57
2022-10-03T20:52:58.037Z,7.78
2022-10-03T20:55:32.410Z,7.40
2022-10-03T20:58:28.124Z,6.93
2022-10-03T21:01:10.766Z,8.55
2022-10-03T21:04:01.944Z,7.25
2022-10-03T21:06:33.195Z,8.15
2022-10-03T21:09:04.372Z,8.35
2022-10-03T21:11:35.934Z,7.05
2022-10-03T21:14:17.067Z,7.32
2022-10-03T21:16:48.552Z,8.63
2022-10-03T21:19:24.382Z,8.30
2022-10-03T21:21:58.971Z,7.57
2022-10-03T21:24:54.103Z,7.88
2022-10-03T21:27:22.507Z,7.50
2022-10-03T21:29:59.403Z,7.22
2022-10-03T21:32:41.192Z,8.73
2022-10-03T21:35:14.685Z,7.82
2022-10-03T21:38:05.612Z,8.30
2022-10-03T21:40:52.271Z,8.05
2022-10-03T21:43:40.095Z,7.63
2022-10-03T21:46:31.816Z,8.00
2022-10-03T21:49:20.369Z,8.18
2022-10-03T21:51:47.065Z,7.80
2022-10-03T21:54:35.423Z,7.72
2022-10-03T21:57:20.977Z,8.23
2022-10-03T22:00:26.901Z,7.93
2022-10-03T22:02:56.590Z,8.40
2022-10-03T22:05:32.229Z,8.05
2022-10-03T22:07:59.156Z,8.13
2022-10-03T22:10:36.160Z,8.35
2022-10-03T22:13:08.126Z,8.52
2022-10-03T22:15:48.937Z,8.45
2022-10-03T22:18:19.282Z,8.57
2022-10-03T22:21:13.493Z,8.13
2022-10-03T22:23:48.786Z,7.50
2022-10-03T22:26:28.515Z,8.60
2022-10-03T22:29:06.208Z,8.02
2022-10-03T22:31:52.830Z,7.85
2022-10-03T22:34:35.260Z,7.97
2022-10-03T22:37:02.719Z,8.00
2022-10-03T22:39:30.281Z,7.70
2022-10-03T22:42:02.065Z,6.63
2022-10-03T22:44:32.798Z,6.82
2022-10-03T22:47:04.565Z,6.75
2022-10-03T22:49:39.620Z,8.00
2022-10-03T22:52:10.914Z,7.60
2022-10-03T22:54:40.824Z,7.57
2022-10-03T22:57:10.202Z,7.28
2022-10-03T22:59:48.769Z,7.35
2022-10-03T23:02:17.428Z,7.55
2022-10-03T23:04:50.070Z,7.50
2022-10-03T23:08:07.209Z,7.88
2022-10-03T23:10:49.890Z,7.50
2022-10-03T23:13:38.645Z,6.50
2022-10-03T23:16:43.037Z,7.03
2022-10-03T23:19:43.765Z,7.57
2022-10-03T23:22:18.149Z,6.72
2022-10-03T23:25:01.931Z,6.78
2022-10-03T23:27:47.308Z,6.75
2022-10-03T23:30:16.750Z,7.03
2022-10-03T23:32:49.717Z,6.22
2022-10-03T23:37:59.932Z,6.47
2022-10-03T23:40:35.825Z,7.10
2022-10-03T23:43:18.955Z,6.55
2022-10-03T23:45:46.415Z,6.80
2022-10-03T23:48:16.826Z,6.65
2022-10-03T23:50:49.487Z,7.05
2022-10-03T23:53:28.702Z,7.00
2022-10-03T23:55:56.357Z,5.93
2022-10-03T23:58:28.661Z,7.30
